createdAt,value
2023-02-17T00:02:58.195Z,68.38
2023-02-17T00:08:00.781Z,68.28
2023-02-17T00:13:04.465Z,69.33
2023-02-17T00:18:07.190Z,68.88
2023-02-17T00:23:09.726Z,69.62
2023-02-17T00:28:12.317Z,69.13
2023-02-17T00:33:14.812Z,67.81
2023-02-17T00:38:18.030Z,68.24
2023-02-17T00:43:20.640Z,68.49
2023-02-17T00:48:23.419Z,69.33
2023-02-17T00:53:26.028Z,69.41
2023-02-17T00:58:28.753Z,69.03
2023-02-17T01:03:31.417Z,69.61
2023-02-17T01:08:34.135Z,70.74
2023-02-17T01:13:37.033Z,69.60
2023-02-17T01:18:39.645Z,71.18
2023-02-17T01:23:42.275Z,70.00
2023-02-17T01:28:44.916Z,70.92
2023-02-17T01:33:47.713Z,71.15
2023-02-17T01:38:50.884Z,69.89
2023-02-17T01:44:16.379Z,70.55
2023-02-17T01:49:31.259Z,69.54
2023-02-17T01:54:40.245Z,69.75
2023-02-17T01:59:45.604Z,69.19
2023-02-17T02:04:53.437Z,69.86
2023-02-17T02:09:58.084Z,69.34
2023-02-17T02:15:06.033Z,69.55
2023-02-17T02:36:17.877Z,68.71
2023-02-17T02:41:27.233Z,69.48
2023-02-17T02:46:30.123Z,69.37
2023-02-17T02:52:12.575Z,68.68
2023-02-17T03:02:52.660Z,68.23
2023-02-17T03:08:03.327Z,69.33
2023-02-17T03:13:06.066Z,68.15
2023-02-17T03:18:09.013Z,69.26
2023-02-17T03:23:12.593Z,69.59
2023-02-17T03:28:15.968Z,68.63
2023-02-17T03:33:18.799Z,69.90
2023-02-17T03:38:21.505Z,69.50
2023-02-17T03:43:24.392Z,69.88
2023-02-17T03:48:27.188Z,70.54
2023-02-17T03:53:29.914Z,71.22
2023-02-17T03:58:32.517Z,70.27
2023-02-17T04:03:36.005Z,70.22
2023-02-17T04:08:40.018Z,70.91
2023-02-17T04:13:42.650Z,69.95
2023-02-17T04:18:45.524Z,70.15
2023-02-17T04:23:48.104Z,70.10
2023-02-17T04:28:50.704Z,70.71
2023-02-17T04:33:53.266Z,70.55
2023-02-17T04:38:55.899Z,70.09
2023-02-17T04:43:58.574Z,71.22
2023-02-17T04:49:01.211Z,70.04
2023-02-17T04:54:03.904Z,69.90
2023-02-17T04:59:06.553Z,70.75
2023-02-17T05:04:09.156Z,70.06
2023-02-17T05:09:11.777Z,69.58
2023-02-17T05:14:14.376Z,70.34
2023-02-17T05:19:17.385Z,70.93
2023-02-17T05:24:20.025Z,69.53
2023-02-17T05:29:23.805Z,68.93
2023-02-17T05:34:26.514Z,69.50
2023-02-17T05:39:29.459Z,69.44
2023-02-17T05:44:32.142Z,68.64
2023-02-17T05:49:34.884Z,68.38
2023-02-17T05:54:38.673Z,69.18
2023-02-17T05:59:41.951Z,68.22
2023-02-17T06:04:45.817Z,68.74
2023-02-17T06:09:49.113Z,67.49
2023-02-17T06:14:52.217Z,67.92
2023-02-17T06:19:55.233Z,67.66
2023-02-17T06:24:58.004Z,65.95
2023-02-17T06:30:00.817Z,66.38
2023-02-17T06:35:03.860Z,66.77
2023-02-17T06:40:07.211Z,66.10
2023-02-17T06:45:11.303Z,65.51
2023-02-17T06:50:16.047Z,65.42
2023-02-17T06:55:18.843Z,64.69
2023-02-17T07:00:22.501Z,65.50
2023-02-17T07:05:26.312Z,64.41
2023-02-17T07:10:29.256Z,65.15
2023-02-17T07:15:31.932Z,65.26
2023-02-17T07:20:35.014Z,63.89
2023-02-17T07:25:37.784Z,63.87
2023-02-17T07:30:41.838Z,63.50
2023-02-17T07:35:44.747Z,65.46
2023-02-17T07:40:47.324Z,64.71
2023-02-17T07:45:57.133Z,63.77
2023-02-17T07:51:11.780Z,64.50
2023-02-17T07:56:15.964Z,64.44
2023-02-17T08:01:22.349Z,63.03
2023-02-17T08:06:25.903Z,63.32
2023-02-17T08:11:50.016Z,62.07
2023-02-17T08:16:53.293Z,62.44
2023-02-17T08:21:56.384Z,61.96
2023-02-17T08:26:59.472Z,61.67
2023-02-17T08:32:02.570Z,62.26
2023-02-17T08:37:07.550Z,61.26
2023-02-17T08:42:13.298Z,62.41
2023-02-17T08:47:16.342Z,60.68
2023-02-17T08:52:19.379Z,61.59
2023-02-17T08:57:24.910Z,60.28
2023-02-17T09:02:28.567Z,59.84
2023-02-17T09:07:31.579Z,59.93
2023-02-17T09:18:10.639Z,59.32
2023-02-17T09:23:14.752Z,58.59
2023-02-17T09:28:24.757Z,59.25
2023-02-17T09:33:43.260Z,58.18
2023-02-17T09:38:46.565Z,57.80
2023-02-17T09:43:52.474Z,57.54
2023-02-17T09:49:01.552Z,56.86
2023-02-17T09:54:22.789Z,55.37
2023-02-17T09:59:49.442Z,54.99
2023-02-17T10:05:20.827Z,55.66
2023-02-17T10:10:45.007Z,54.94
2023-02-17T10:15:52.984Z,55.08
2023-02-17T10:21:02.388Z,55.12
2023-02-17T10:37:14.971Z,53.14
2023-02-17T10:42:38.958Z,54.36
2023-02-17T10:47:41.804Z,54.14
2023-02-17T10:52:44.537Z,54.74
2023-02-17T10:57:50.848Z,54.78
2023-02-17T11:02:53.689Z,54.77
2023-02-17T11:08:01.608Z,54.65
2023-02-17T11:13:19.631Z,54.25
2023-02-17T11:18:28.264Z,52.30
2023-02-17T11:23:31.136Z,49.31
2023-02-17T11:28:34.056Z,50.84
2023-02-17T11:33:39.765Z,51.57
2023-02-17T11:38:45.707Z,52.08
2023-02-17T11:43:59.290Z,52.75
2023-02-17T12:36:44.504Z,41.89
2023-02-17T12:42:09.512Z,40.74
2023-02-17T12:47:24.688Z,39.53
2023-02-17T12:52:44.018Z,41.02
2023-02-17T12:57:56.076Z,42.05
2023-02-17T13:02:59.712Z,41.91
2023-02-17T13:08:10.637Z,43.79
2023-02-17T13:13:34.112Z,43.49
2023-02-17T13:18:41.313Z,45.19
2023-02-17T13:23:57.532Z,48.41
2023-02-17T13:34:43.647Z,49.37
2023-02-17T13:39:46.518Z,50.17
2023-02-17T13:44:51.474Z,52.15
2023-02-17T13:49:57.117Z,52.67
2023-02-17T14:05:44.669Z,54.25
2023-02-17T14:10:48.116Z,53.81
2023-02-17T14:15:54.263Z,56.22
2023-02-17T14:21:02.442Z,55.04
2023-02-17T14:26:11.183Z,56.15
2023-02-17T14:31:20.309Z,56.16
2023-02-17T14:36:29.202Z,58.59
2023-02-17T14:41:31.970Z,57.00
2023-02-17T14:46:35.098Z,57.89
2023-02-17T14:51:38.306Z,58.35
2023-02-17T14:56:51.983Z,58.75
2023-02-17T15:01:55.712Z,59.33
2023-02-17T15:06:58.370Z,59.31
2023-02-17T15:12:01.122Z,59.13
2023-02-17T15:17:03.909Z,59.16
2023-02-17T15:22:07.050Z,59.18
2023-02-17T15:27:14.706Z,60.95
2023-02-17T15:32:19.733Z,60.74
2023-02-17T15:37:22.465Z,60.29
2023-02-17T15:42:26.156Z,60.37
2023-02-17T15:47:29.857Z,59.16
2023-02-17T15:52:32.499Z,59.98
2023-02-17T15:57:40.017Z,60.61
2023-02-17T16:02:42.694Z,61.97
2023-02-17T16:07:45.611Z,61.06
2023-02-17T16:12:51.055Z,61.74
2023-02-17T16:17:55.661Z,62.33
2023-02-17T16:22:58.978Z,62.21
2023-02-17T16:28:01.630Z,62.22
2023-02-17T16:33:04.452Z,63.26
2023-02-17T16:38:13.121Z,62.50
2023-02-17T16:43:20.489Z,62.12
2023-02-17T16:48:25.859Z,62.75
2023-02-17T16:53:28.532Z,63.87
2023-02-17T16:58:31.161Z,62.98
2023-02-17T17:03:33.854Z,63.25
2023-02-17T17:08:36.494Z,63.02
2023-02-17T17:13:39.527Z,63.36
2023-02-17T17:18:43.266Z,62.90
2023-02-17T17:23:47.099Z,62.61
2023-02-17T17:28:50.356Z,63.36
2023-02-17T17:33:53.701Z,63.97
2023-02-17T17:38:58.245Z,63.57
2023-02-17T17:44:00.961Z,64.32
2023-02-17T17:49:06.098Z,64.06
2023-02-17T17:54:08.922Z,64.45
2023-02-17T17:59:13.819Z,64.19
2023-02-17T18:04:17.396Z,64.97
2023-02-17T18:09:31.693Z,64.68
2023-02-17T18:14:38.138Z,64.52
2023-02-17T18:19:41.163Z,64.37
2023-02-17T18:24:45.302Z,64.76
2023-02-17T18:29:47.996Z,65.08
2023-02-17T18:34:50.594Z,64.69
2023-02-17T18:39:53.831Z,64.64
2023-02-17T18:44:56.922Z,65.36
2023-02-17T18:49:59.589Z,65.30
2023-02-17T18:55:02.255Z,65.46
2023-02-17T19:00:11.343Z,65.27
2023-02-17T19:05:17.551Z,65.95
2023-02-17T19:10:20.250Z,66.68
2023-02-17T19:15:23.654Z,67.15
2023-02-17T19:20:28.642Z,66.11
2023-02-17T19:25:32.196Z,66.45
2023-02-17T19:30:35.125Z,66.70
2023-02-17T19:35:43.124Z,66.53
2023-02-17T19:40:46.651Z,67.07
2023-02-17T19:45:50.228Z,66.69
2023-02-17T19:50:59.126Z,67.44
2023-02-17T19:56:12.153Z,67.67
2023-02-17T20:01:19.987Z,67.62
2023-02-17T20:06:27.516Z,67.53
2023-02-17T20:11:30.645Z,67.73
2023-02-17T20:16:33.842Z,68.00
2023-02-17T20:21:38.724Z,67.79
2023-02-17T20:26:44.262Z,67.65
2023-02-17T20:31:47.146Z,67.64
2023-02-17T20:36:49.817Z,68.73
2023-02-17T20:41:53.950Z,68.51
2023-02-17T20:46:57.179Z,67.30
2023-02-17T20:51:59.803Z,67.27
2023-02-17T20:57:02.504Z,67.04
2023-02-17T21:02:05.129Z,66.20
2023-02-17T21:07:07.851Z,65.69
2023-02-17T21:12:10.487Z,66.92
2023-02-17T21:17:13.096Z,67.00
2023-02-17T21:22:15.697Z,66.93
2023-02-17T21:27:18.702Z,66.03
2023-02-17T21:32:21.362Z,67.33
2023-02-17T21:37:23.995Z,67.60
2023-02-17T21:42:46.450Z,66.14
2023-02-17T21:47:49.024Z,66.84
2023-02-17T21:52:51.598Z,66.51
2023-02-17T21:57:54.215Z,66.40
2023-02-17T22:02:56.878Z,67.08
2023-02-17T22:07:59.527Z,67.81
2023-02-17T22:13:02.189Z,68.45
2023-02-17T22:18:04.966Z,68.75
2023-02-17T22:23:07.523Z,68.28
2023-02-17T22:28:11.604Z,68.76
2023-02-17T22:33:14.920Z,69.09
2023-02-17T22:38:17.458Z,69.78
2023-02-17T22:43:20.286Z,69.54
2023-02-17T22:48:23.009Z,69.16
2023-02-17T22:53:25.667Z,69.40
2023-02-17T22:58:28.589Z,69.74
2023-02-17T23:03:31.162Z,70.92
2023-02-17T23:08:34.523Z,70.97
2023-02-17T23:13:37.757Z,70.80
2023-02-17T23:18:40.972Z,71.53
2023-02-17T23:23:43.478Z,71.44
2023-02-17T23:28:46.041Z,71.04
2023-02-17T23:33:48.611Z,72.62
2023-02-17T23:38:51.263Z,72.79
2023-02-17T23:43:54.665Z,72.78
2023-02-17T23:48:57.336Z,74.72
2023-02-17T23:53:59.904Z,73.59
2023-02-17T23:59:03.025Z,73.29
